createdAt,value
2023-01-29T00:00:47.575Z, 44.87
2023-01-29T00:01:47.633Z, 44.77
2023-01-29T00:02:47.666Z, 44.72
2023-01-29T00:03:47.633Z, 44.73
2023-01-29T00:04:47.668Z, 44.67
2023-01-29T00:05:47.672Z, 44.63
2023-01-29T00:06:47.662Z, 44.64
2023-01-29T00:07:47.638Z, 44.63
2023-01-29T00:08:47.631Z, 44.58
2023-01-29T00:09:47.727Z, 44.64
2023-01-29T00:10:47.743Z, 44.65
2023-01-29T00:11:47.772Z, 44.60
2023-01-29T00:12:47.755Z, 44.55
2023-01-29T00:13:47.755Z, 44.56
2023-01-29T00:14:47.746Z, 44.46
2023-01-29T00:15:47.766Z, 44.46
2023-01-29T00:16:47.811Z, 44.45
2023-01-29T00:17:47.838Z, 44.42
2023-01-29T00:18:47.809Z, 44.34
2023-01-29T00:19:47.841Z, 44.28
2023-01-29T00:20:47.864Z, 44.27
2023-01-29T00:21:47.851Z, 44.31
2023-01-29T00:22:47.888Z, 44.21
2023-01-29T00:23:47.949Z, 44.19
2023-01-29T00:24:47.929Z, 44.16
2023-01-29T00:25:47.927Z, 44.13
2023-01-29T00:26:47.920Z, 44.12
2023-01-29T00:27:48.009Z, 44.09
2023-01-29T00:28:48.020Z, 44.03
2023-01-29T00:29:47.995Z, 44.04
2023-01-29T00:30:48.012Z, 44.02
2023-01-29T00:31:48.177Z, 43.96
2023-01-29T00:32:48.087Z, 43.92
2023-01-29T00:33:48.082Z, 43.94
2023-01-29T00:34:48.109Z, 43.96
2023-01-29T00:35:48.117Z, 44.01
2023-01-29T00:36:48.100Z, 43.97
2023-01-29T00:37:48.113Z, 43.85
2023-01-29T00:38:48.150Z, 43.84
2023-01-29T00:39:48.511Z, 43.80
2023-01-29T00:40:48.183Z, 43.78
2023-01-29T00:41:48.189Z, 43.77
2023-01-29T00:42:48.222Z, 43.76
2023-01-29T00:43:48.179Z, 43.72
2023-01-29T00:44:48.176Z, 43.64
2023-01-29T00:45:48.251Z, 43.70
2023-01-29T00:46:48.288Z, 43.59
2023-01-29T00:47:48.287Z, 43.47
2023-01-29T00:48:48.284Z, 43.44
2023-01-29T00:49:48.297Z, 43.37
2023-01-29T00:50:48.339Z, 43.44
2023-01-29T00:51:48.341Z, 43.39
2023-01-29T00:52:48.379Z, 43.33
2023-01-29T00:53:48.376Z, 43.37
2023-01-29T00:54:48.400Z, 43.31
2023-01-29T00:55:48.409Z, 43.30
2023-01-29T00:56:48.424Z, 43.27
2023-01-29T00:57:48.449Z, 43.17
2023-01-29T00:58:48.430Z, 43.22
2023-01-29T00:59:48.421Z, 43.18
2023-01-29T01:00:48.498Z, 43.16
2023-01-29T01:01:48.442Z, 43.11
2023-01-29T01:02:48.434Z, 43.10
2023-01-29T01:03:48.517Z, 43.07
2023-01-29T01:04:48.535Z, 43.09
2023-01-29T01:05:48.533Z, 42.99
2023-01-29T01:06:48.514Z, 43.03
2023-01-29T01:07:48.557Z, 43.04
2023-01-29T01:08:48.547Z, 43.08
2023-01-29T01:09:48.575Z, 42.98
2023-01-29T01:10:48.613Z, 42.94
2023-01-29T01:11:48.597Z, 42.98
2023-01-29T01:12:48.596Z, 42.91
2023-01-29T01:13:48.648Z, 42.89
2023-01-29T01:14:48.642Z, 42.92
2023-01-29T01:15:48.703Z, 42.83
2023-01-29T01:16:48.706Z, 42.83
2023-01-29T01:17:48.699Z, 42.81
2023-01-29T01:18:48.688Z, 42.79
2023-01-29T01:19:48.747Z, 42.73
2023-01-29T01:20:48.745Z, 42.68
2023-01-29T01:21:48.763Z, 42.71
2023-01-29T01:22:48.840Z, 42.69
2023-01-29T01:23:48.790Z, 42.65
2023-01-29T01:24:48.799Z, 42.67
2023-01-29T01:25:48.882Z, 42.66
2023-01-29T01:26:48.864Z, 42.63
2023-01-29T01:27:48.893Z, 42.64
2023-01-29T01:28:48.899Z, 42.60
2023-01-29T01:29:48.890Z, 42.49
2023-01-29T01:30:48.997Z, 42.42
2023-01-29T01:31:49.100Z, 42.37
2023-01-29T01:32:49.015Z, 42.33
2023-01-29T01:33:49.060Z, 42.22
2023-01-29T01:34:48.998Z, 42.31
2023-01-29T01:35:49.044Z, 42.33
2023-01-29T01:36:49.087Z, 42.28
2023-01-29T01:37:49.079Z, 42.29
2023-01-29T01:38:49.123Z, 42.24
2023-01-29T01:39:49.150Z, 42.23
2023-01-29T01:40:49.147Z, 42.24
2023-01-29T01:41:49.159Z, 42.18
2023-01-29T01:42:49.182Z, 42.17
2023-01-29T01:43:49.134Z, 42.16
2023-01-29T01:44:49.167Z, 42.06
2023-01-29T01:45:49.211Z, 42.04
2023-01-29T01:46:49.160Z, 41.97
2023-01-29T01:47:49.185Z, 41.93
2023-01-29T01:48:49.254Z, 41.91
2023-01-29T01:49:49.246Z, 41.90
2023-01-29T01:50:49.253Z, 41.92
2023-01-29T01:51:49.291Z, 41.93
2023-01-29T01:52:49.296Z, 41.90
2023-01-29T01:53:49.254Z, 41.87
2023-01-29T01:54:49.327Z, 41.85
2023-01-29T01:55:49.332Z, 41.84
2023-01-29T01:56:49.336Z, 41.75
2023-01-29T01:57:49.333Z, 41.73
2023-01-29T01:58:49.329Z, 41.77
2023-01-29T01:59:49.353Z, 41.72
2023-01-29T02:00:49.367Z, 41.68
2023-01-29T02:01:49.456Z, 41.73
2023-01-29T02:02:49.382Z, 41.67
2023-01-29T02:03:49.371Z, 41.66
2023-01-29T02:04:49.379Z, 41.58
2023-01-29T02:05:49.368Z, 41.61
2023-01-29T02:06:49.420Z, 41.67
2023-01-29T02:07:49.396Z, 41.59
2023-01-29T02:08:49.383Z, 41.54
2023-01-29T02:09:49.395Z, 41.52
2023-01-29T02:10:49.432Z, 41.51
2023-01-29T02:11:49.461Z, 41.46
2023-01-29T02:12:49.515Z, 41.40
2023-01-29T02:13:49.487Z, 41.38
2023-01-29T02:14:49.498Z, 41.35
2023-01-29T02:15:49.500Z, 41.35
2023-01-29T02:16:49.490Z, 41.26
2023-01-29T02:17:49.623Z, 41.27
2023-01-29T02:18:49.492Z, 41.22
2023-01-29T02:19:49.532Z, 41.23
2023-01-29T02:20:49.515Z, 41.20
2023-01-29T02:21:49.536Z, 41.13
2023-01-29T02:22:49.561Z, 41.15
2023-01-29T02:23:49.603Z, 41.21
2023-01-29T02:24:49.611Z, 41.20
2023-01-29T02:25:49.621Z, 41.17
2023-01-29T02:26:49.615Z, 41.10
2023-01-29T02:27:49.639Z, 41.06
2023-01-29T02:28:49.657Z, 41.02
2023-01-29T02:29:49.678Z, 41.02
2023-01-29T02:30:49.706Z, 40.94
2023-01-29T02:31:49.736Z, 41.01
2023-01-29T02:32:49.711Z, 41.02
2023-01-29T02:33:49.770Z, 40.96
2023-01-29T02:34:49.767Z, 40.99
2023-01-29T02:35:49.755Z, 40.96
2023-01-29T02:36:49.779Z, 40.97
2023-01-29T02:37:49.776Z, 40.96
2023-01-29T02:38:49.782Z, 40.87
2023-01-29T02:39:49.798Z, 40.87
2023-01-29T02:40:49.822Z, 40.85
2023-01-29T02:41:49.847Z, 40.90
2023-01-29T02:42:49.854Z, 40.84
2023-01-29T02:43:49.871Z, 40.78
2023-01-29T02:44:49.887Z, 40.78
2023-01-29T02:45:49.946Z, 40.80
2023-01-29T02:46:49.892Z, 40.75
2023-01-29T02:47:49.920Z, 40.68
2023-01-29T02:48:49.934Z, 40.68
2023-01-29T02:49:49.955Z, 40.64
2023-01-29T02:50:49.975Z, 40.62
2023-01-29T02:51:49.992Z, 40.55
2023-01-29T02:52:50.030Z, 40.51
2023-01-29T02:53:50.042Z, 40.51
2023-01-29T02:54:50.020Z, 40.50
2023-01-29T02:55:50.034Z, 40.56
2023-01-29T02:56:50.048Z, 40.56
2023-01-29T02:57:50.048Z, 40.57
2023-01-29T02:58:50.073Z, 40.53
2023-01-29T02:59:50.099Z, 40.55
2023-01-29T03:00:50.141Z, 40.52
2023-01-29T03:01:50.136Z, 40.48
2023-01-29T03:02:50.141Z, 40.34
2023-01-29T03:03:50.134Z, 40.33
2023-01-29T03:04:50.161Z, 40.32
2023-01-29T03:05:50.179Z, 40.28
2023-01-29T03:06:50.211Z, 40.26
2023-01-29T03:07:50.215Z, 40.24
2023-01-29T03:08:50.209Z, 40.20
2023-01-29T03:09:50.223Z, 40.19
2023-01-29T03:10:50.250Z, 40.18
2023-01-29T03:11:50.291Z, 40.13
2023-01-29T03:12:50.315Z, 40.09
2023-01-29T03:13:50.324Z, 40.11
2023-01-29T03:14:50.335Z, 40.14
2023-01-29T03:15:50.323Z, 40.07
2023-01-29T03:16:50.440Z, 40.09
2023-01-29T03:17:50.397Z, 40.07
2023-01-29T03:18:50.430Z, 40.04
2023-01-29T03:19:50.453Z, 40.07
2023-01-29T03:20:50.454Z, 40.05
2023-01-29T03:21:50.457Z, 40.03
2023-01-29T03:22:50.507Z, 40.01
2023-01-29T03:23:50.502Z, 39.94
2023-01-29T03:24:50.500Z, 39.95
2023-01-29T03:25:50.486Z, 39.90
2023-01-29T03:26:50.532Z, 39.90
2023-01-29T03:27:50.547Z, 39.91
2023-01-29T03:28:50.540Z, 39.89
2023-01-29T03:29:50.596Z, 39.87
2023-01-29T03:30:50.660Z, 39.85
2023-01-29T03:31:50.678Z, 39.79
2023-01-29T03:32:50.631Z, 39.76
2023-01-29T03:33:50.631Z, 39.74
2023-01-29T03:34:50.651Z, 39.74
2023-01-29T03:35:50.679Z, 39.71
2023-01-29T03:36:50.647Z, 39.70
2023-01-29T03:37:50.704Z, 39.66
2023-01-29T03:38:50.709Z, 39.62
2023-01-29T03:39:50.679Z, 39.59
2023-01-29T03:40:50.688Z, 39.55
2023-01-29T03:41:50.692Z, 39.63
2023-01-29T03:42:50.719Z, 39.61
2023-01-29T03:43:50.749Z, 39.60
2023-01-29T03:44:50.804Z, 39.52
2023-01-29T03:45:50.869Z, 39.47
2023-01-29T03:46:50.795Z, 39.49
2023-01-29T03:47:50.790Z, 39.42
2023-01-29T03:48:50.795Z, 39.37
2023-01-29T03:49:50.814Z, 39.36
2023-01-29T03:50:50.819Z, 39.28
2023-01-29T03:51:50.829Z, 39.25
2023-01-29T03:52:50.855Z, 39.23
2023-01-29T03:53:50.884Z, 39.21
2023-01-29T03:54:50.886Z, 39.17
2023-01-29T03:55:50.903Z, 39.18
2023-01-29T03:56:50.894Z, 39.22
2023-01-29T03:57:50.954Z, 39.21
2023-01-29T03:58:50.951Z, 39.23
2023-01-29T03:59:50.997Z, 39.22
2023-01-29T04:00:51.039Z, 39.22
2023-01-29T04:01:51.033Z, 39.14
2023-01-29T04:02:51.020Z, 39.13
2023-01-29T04:03:51.080Z, 39.15
2023-01-29T04:04:51.004Z, 39.10
2023-01-29T04:05:51.007Z, 39.11
2023-01-29T04:06:51.009Z, 39.08
2023-01-29T04:07:51.023Z, 39.09
2023-01-29T04:08:51.054Z, 39.04
2023-01-29T04:09:51.046Z, 39.08
2023-01-29T04:10:51.044Z, 39.08
2023-01-29T04:11:51.066Z, 39.08
2023-01-29T04:12:51.198Z, 39.04
2023-01-29T04:13:51.111Z, 39.00
2023-01-29T04:14:51.167Z, 38.99
2023-01-29T04:15:51.147Z, 38.96
2023-01-29T04:16:51.192Z, 38.93
2023-01-29T04:17:51.191Z, 38.92
2023-01-29T04:18:51.201Z, 38.87
2023-01-29T04:19:51.187Z, 38.90
2023-01-29T04:20:51.180Z, 38.86
2023-01-29T04:21:51.198Z, 38.86
2023-01-29T04:22:51.187Z, 38.81
2023-01-29T04:23:51.209Z, 38.81
2023-01-29T04:24:51.271Z, 38.76
2023-01-29T04:25:51.242Z, 38.70
2023-01-29T04:26:51.282Z, 38.68
2023-01-29T04:27:51.298Z, 38.77
2023-01-29T04:28:51.306Z, 38.78
2023-01-29T04:29:51.295Z, 38.77
2023-01-29T04:30:51.425Z, 38.75
2023-01-29T04:31:51.325Z, 40.14
2023-01-29T04:32:51.294Z, 40.96
2023-01-29T04:33:51.322Z, 41.14
2023-01-29T04:34:51.323Z, 41.00
2023-01-29T04:35:51.337Z, 40.60
2023-01-29T04:36:51.347Z, 39.80
2023-01-29T04:37:51.360Z, 39.03
2023-01-29T04:38:51.362Z, 38.07
2023-01-29T04:39:51.397Z, 36.83
2023-01-29T04:40:51.385Z, 33.76
2023-01-29T04:41:51.397Z, 29.60
2023-01-29T04:42:51.416Z, 31.09
2023-01-29T04:43:51.422Z, 33.80
2023-01-29T04:44:51.443Z, 35.65
2023-01-29T04:45:51.513Z, 36.71
2023-01-29T04:46:51.480Z, 37.88
2023-01-29T04:47:51.477Z, 39.35
2023-01-29T04:48:51.486Z, 41.25
2023-01-29T04:49:51.483Z, 43.05
2023-01-29T04:50:51.483Z, 44.86
2023-01-29T04:51:51.535Z, 45.07
2023-01-29T04:52:51.506Z, 42.35
2023-01-29T04:53:51.502Z, 39.96
2023-01-29T04:54:51.534Z, 37.58
2023-01-29T04:55:51.525Z, 35.49
2023-01-29T04:56:51.582Z, 33.88
2023-01-29T04:57:51.644Z, 32.20
2023-01-29T04:58:51.592Z, 30.13
2023-01-29T04:59:51.599Z, 30.04
2023-01-29T05:00:51.589Z, 35.23
2023-01-29T05:01:51.845Z, 38.33
2023-01-29T05:02:51.685Z, 39.94
2023-01-29T05:03:51.622Z, 41.54
2023-01-29T05:04:51.606Z, 43.26
2023-01-29T05:05:51.629Z, 45.06
2023-01-29T05:06:51.642Z, 46.65
2023-01-29T05:07:51.649Z, 48.13
2023-01-29T05:08:51.690Z, 49.64
2023-01-29T05:09:51.672Z, 48.85
2023-01-29T05:10:51.679Z, 46.05
2023-01-29T05:11:51.675Z, 42.87
2023-01-29T05:12:51.707Z, 40.09
2023-01-29T05:13:51.694Z, 37.48
2023-01-29T05:14:51.764Z, 34.29
2023-01-29T05:15:51.843Z, 30.97
2023-01-29T05:16:51.813Z, 31.83
2023-01-29T05:17:51.778Z, 35.95
2023-01-29T05:18:51.793Z, 38.63
2023-01-29T05:19:51.836Z, 40.50
2023-01-29T05:20:51.816Z, 42.47
2023-01-29T05:21:51.837Z, 44.64
2023-01-29T05:22:51.840Z, 46.86
2023-01-29T05:23:51.803Z, 48.92
2023-01-29T05:24:51.868Z, 50.08
2023-01-29T05:25:51.911Z, 48.42
2023-01-29T05:26:51.882Z, 45.89
2023-01-29T05:27:51.869Z, 43.24
2023-01-29T05:28:51.861Z, 40.79
2023-01-29T05:29:51.868Z, 38.72
2023-01-29T05:30:51.992Z, 36.29
2023-01-29T05:31:51.978Z, 33.38
2023-01-29T05:32:51.911Z, 31.36
2023-01-29T05:33:51.926Z, 34.87
2023-01-29T05:34:51.928Z, 38.45
2023-01-29T05:35:51.973Z, 40.90
2023-01-29T05:36:51.979Z, 43.10
2023-01-29T05:37:51.972Z, 45.59
2023-01-29T05:38:51.971Z, 48.28
2023-01-29T05:39:51.986Z, 50.05
2023-01-29T05:40:52.013Z, 49.65
2023-01-29T05:41:52.076Z, 47.53
2023-01-29T05:42:52.060Z, 45.10
2023-01-29T05:43:52.043Z, 42.87
2023-01-29T05:44:52.080Z, 40.85
2023-01-29T05:45:52.046Z, 38.93
2023-01-29T05:46:52.129Z, 36.56
2023-01-29T05:47:52.144Z, 33.68
2023-01-29T05:48:52.101Z, 31.56
2023-01-29T05:49:52.084Z, 34.90
2023-01-29T05:50:52.152Z, 38.85
2023-01-29T05:51:52.104Z, 41.64
2023-01-29T05:52:52.172Z, 44.04
2023-01-29T05:53:52.171Z, 46.94
2023-01-29T05:54:52.147Z, 49.00
2023-01-29T05:55:52.154Z, 50.49
2023-01-29T05:56:52.177Z, 49.80
2023-01-29T05:57:52.217Z, 47.82
2023-01-29T05:58:52.247Z, 45.75
2023-01-29T05:59:52.225Z, 43.60
2023-01-29T06:00:52.274Z, 41.71
2023-01-29T06:01:52.302Z, 39.07
2023-01-29T06:02:52.407Z, 35.45
2023-01-29T06:03:52.339Z, 32.16
2023-01-29T06:04:52.266Z, 31.54
2023-01-29T06:05:52.271Z, 35.93
2023-01-29T06:06:52.316Z, 40.03
2023-01-29T06:07:52.363Z, 42.81
2023-01-29T06:08:52.340Z, 44.82
2023-01-29T06:09:52.384Z, 46.64
2023-01-29T06:10:52.398Z, 48.72
2023-01-29T06:11:52.351Z, 50.29
2023-01-29T06:12:52.410Z, 51.78
2023-01-29T06:13:52.387Z, 53.34
2023-01-29T06:14:52.429Z, 54.98
2023-01-29T06:15:52.489Z, 56.59
2023-01-29T06:16:52.442Z, 58.09
2023-01-29T06:17:52.509Z, 58.41
2023-01-29T06:18:52.464Z, 58.40
2023-01-29T06:19:52.505Z, 58.20
2023-01-29T06:20:52.489Z, 57.89
2023-01-29T06:21:52.507Z, 57.58
2023-01-29T06:22:52.510Z, 57.36
2023-01-29T06:23:52.520Z, 57.10
2023-01-29T06:24:52.543Z, 56.92
2023-01-29T06:25:52.542Z, 56.67
2023-01-29T06:26:52.533Z, 56.50
2023-01-29T06:27:52.537Z, 56.32
2023-01-29T06:28:52.595Z, 56.02
2023-01-29T06:29:52.567Z, 55.87
2023-01-29T06:30:52.583Z, 55.62
2023-01-29T06:31:52.729Z, 55.41
2023-01-29T06:32:52.605Z, 55.22
2023-01-29T06:33:52.577Z, 55.05
2023-01-29T06:34:52.627Z, 54.83
2023-01-29T06:35:52.620Z, 54.61
2023-01-29T06:36:52.636Z, 54.48
2023-01-29T06:37:52.636Z, 54.23
2023-01-29T06:38:52.645Z, 53.93
2023-01-29T06:39:52.670Z, 53.77
2023-01-29T06:40:52.682Z, 53.59
2023-01-29T06:41:52.695Z, 53.37
2023-01-29T06:42:52.699Z, 53.17
2023-01-29T06:43:52.772Z, 52.98
2023-01-29T06:44:52.777Z, 52.87
2023-01-29T06:45:52.855Z, 52.68
2023-01-29T06:46:52.780Z, 52.47
2023-01-29T06:47:52.815Z, 52.22
2023-01-29T06:48:52.859Z, 52.07
2023-01-29T06:49:52.813Z, 51.87
2023-01-29T06:50:52.791Z, 51.74
2023-01-29T06:51:52.830Z, 51.55
2023-01-29T06:52:52.823Z, 51.37
2023-01-29T06:53:52.842Z, 51.25
2023-01-29T06:54:52.868Z, 51.09
2023-01-29T06:55:52.865Z, 50.87
2023-01-29T06:56:52.869Z, 50.75
2023-01-29T06:57:52.884Z, 50.63
2023-01-29T06:58:52.913Z, 50.44
2023-01-29T06:59:52.925Z, 50.25
2023-01-29T07:00:53.081Z, 50.09
2023-01-29T07:01:52.995Z, 49.98
2023-01-29T07:02:52.964Z, 49.86
2023-01-29T07:03:52.961Z, 49.68
2023-01-29T07:04:52.982Z, 49.52
2023-01-29T07:05:53.066Z, 49.44
2023-01-29T07:06:53.044Z, 49.28
2023-01-29T07:07:53.055Z, 49.18
2023-01-29T07:08:53.066Z, 49.02
2023-01-29T07:09:53.097Z, 48.88
2023-01-29T07:10:53.090Z, 48.78
2023-01-29T07:11:53.115Z, 48.66
2023-01-29T07:12:53.106Z, 48.57
2023-01-29T07:13:53.116Z, 48.46
2023-01-29T07:14:53.101Z, 48.27
2023-01-29T07:15:53.090Z, 48.14
2023-01-29T07:16:53.178Z, 48.13
2023-01-29T07:17:53.144Z, 47.99
2023-01-29T07:18:53.172Z, 47.85
2023-01-29T07:19:53.151Z, 47.74
2023-01-29T07:20:53.145Z, 47.62
2023-01-29T07:21:53.170Z, 47.51
2023-01-29T07:22:53.182Z, 47.40
2023-01-29T07:23:53.200Z, 47.34
2023-01-29T07:24:53.274Z, 47.28
2023-01-29T07:25:53.226Z, 47.17
2023-01-29T07:26:53.223Z, 47.10
2023-01-29T07:27:53.302Z, 47.02
2023-01-29T07:28:53.307Z, 46.91
2023-01-29T07:29:53.300Z, 46.78
2023-01-29T07:30:53.398Z, 46.70
2023-01-29T07:31:53.534Z, 46.59
2023-01-29T07:32:53.319Z, 46.48
2023-01-29T07:33:53.313Z, 46.41
2023-01-29T07:34:53.328Z, 46.28
2023-01-29T07:35:53.357Z, 46.21
2023-01-29T07:36:53.339Z, 46.16
2023-01-29T07:37:53.402Z, 46.05
2023-01-29T07:38:53.392Z, 45.92
2023-01-29T07:39:53.378Z, 45.88
2023-01-29T07:40:53.373Z, 45.85
2023-01-29T07:41:53.452Z, 45.78
2023-01-29T07:42:53.442Z, 45.66
2023-01-29T07:43:53.481Z, 45.63
2023-01-29T07:44:53.487Z, 45.51
2023-01-29T07:45:53.545Z, 45.36
2023-01-29T07:46:53.493Z, 45.31
2023-01-29T07:47:53.512Z, 45.27
2023-01-29T07:48:53.503Z, 45.18
2023-01-29T07:49:53.484Z, 45.06
2023-01-29T07:50:53.507Z, 45.02
2023-01-29T07:51:53.578Z, 44.98
2023-01-29T07:52:53.606Z, 44.96
2023-01-29T07:53:53.603Z, 44.84
2023-01-29T07:54:53.636Z, 44.80
2023-01-29T07:55:53.642Z, 44.75
2023-01-29T07:56:53.610Z, 44.66
2023-01-29T07:57:53.675Z, 44.62
2023-01-29T07:58:53.674Z, 44.53
2023-01-29T07:59:53.652Z, 44.46
2023-01-29T08:00:53.722Z, 44.34
2023-01-29T08:01:53.668Z, 44.31
2023-01-29T08:02:53.653Z, 44.29
2023-01-29T08:03:53.665Z, 44.18
2023-01-29T08:04:53.686Z, 44.10
2023-01-29T08:05:53.776Z, 44.06
2023-01-29T08:06:53.773Z, 43.95
2023-01-29T08:08:05.794Z, 43.88
2023-01-29T08:08:53.760Z, 43.83
2023-01-29T08:09:53.766Z, 43.77
2023-01-29T08:10:53.776Z, 43.71
2023-01-29T08:11:53.780Z, 43.65
2023-01-29T08:12:53.767Z, 43.59
2023-01-29T08:13:53.808Z, 43.57
2023-01-29T08:14:53.862Z, 43.54
2023-01-29T08:15:53.864Z, 43.46
2023-01-29T08:16:53.883Z, 43.41
2023-01-29T08:17:58.103Z, 43.38
2023-01-29T08:18:53.887Z, 43.29
2023-01-29T08:19:53.859Z, 43.25
2023-01-29T08:20:53.874Z, 43.13
2023-01-29T08:21:53.889Z, 43.07
2023-01-29T08:22:53.956Z, 43.04
2023-01-29T08:23:53.940Z, 43.04
2023-01-29T08:25:00.248Z, 42.96
2023-01-29T08:25:53.971Z, 42.88
2023-01-29T08:26:53.959Z, 42.87
2023-01-29T08:27:53.985Z, 42.77
2023-01-29T08:28:53.993Z, 42.86
2023-01-29T08:29:54.049Z, 44.52
2023-01-29T08:30:54.068Z, 47.89
2023-01-29T08:31:54.167Z, 51.78
2023-01-29T08:32:54.086Z, 56.24
2023-01-29T08:33:54.116Z, 60.41
2023-01-29T08:34:54.098Z, 69.46
2023-01-29T08:35:54.092Z, 53.63
2023-01-29T08:36:54.123Z, 52.70
2023-01-29T08:37:54.153Z, 53.76
2023-01-29T08:38:54.150Z, 55.24
2023-01-29T08:39:54.190Z, 58.23
2023-01-29T08:40:54.177Z, 61.46
2023-01-29T08:41:54.213Z, 66.93
2023-01-29T08:42:54.229Z, 54.03
2023-01-29T08:43:54.250Z, 53.39
2023-01-29T08:44:54.282Z, 54.47
2023-01-29T08:45:54.371Z, 56.47
2023-01-29T08:46:54.294Z, 57.56
2023-01-29T08:47:54.328Z, 58.44
2023-01-29T08:48:54.321Z, 58.95
2023-01-29T08:49:54.332Z, 59.26
2023-01-29T08:50:54.313Z, 59.67
2023-01-29T08:51:54.352Z, 59.76
2023-01-29T08:52:54.371Z, 59.82
2023-01-29T08:53:54.386Z, 59.92
2023-01-29T08:54:54.359Z, 59.81
2023-01-29T08:55:54.394Z, 59.73
2023-01-29T08:56:54.367Z, 59.79
2023-01-29T08:57:54.472Z, 59.66
2023-01-29T08:58:54.362Z, 59.53
2023-01-29T08:59:54.444Z, 59.45
2023-01-29T09:00:54.460Z, 59.22
2023-01-29T09:01:54.419Z, 59.08
2023-01-29T09:02:54.451Z, 58.96
2023-01-29T09:03:54.471Z, 58.81
2023-01-29T09:04:54.467Z, 58.71
2023-01-29T09:05:54.494Z, 58.60
2023-01-29T09:06:54.487Z, 58.56
2023-01-29T09:07:54.477Z, 58.32
2023-01-29T09:08:54.508Z, 58.08
2023-01-29T09:09:54.488Z, 58.01
2023-01-29T09:10:54.495Z, 57.83
2023-01-29T09:11:54.501Z, 57.69
2023-01-29T09:12:54.519Z, 57.53
2023-01-29T09:13:54.540Z, 57.35
2023-01-29T09:14:54.563Z, 57.27
2023-01-29T09:15:54.575Z, 57.16
2023-01-29T09:16:54.662Z, 57.03
2023-01-29T09:17:54.597Z, 57.00
2023-01-29T09:18:54.619Z, 56.83
2023-01-29T09:19:54.658Z, 56.76
2023-01-29T09:20:54.642Z, 56.64
2023-01-29T09:21:54.649Z, 56.50
2023-01-29T09:22:54.686Z, 56.39
2023-01-29T09:23:54.711Z, 56.21
2023-01-29T09:24:54.694Z, 56.08
2023-01-29T09:25:54.701Z, 55.97
2023-01-29T09:26:54.782Z, 55.84
2023-01-29T09:27:54.776Z, 55.76
2023-01-29T09:28:54.780Z, 55.61
2023-01-29T09:29:54.845Z, 55.41
2023-01-29T09:30:54.940Z, 55.31
2023-01-29T09:31:54.914Z, 55.20
2023-01-29T09:32:55.221Z, 55.14
2023-01-29T09:33:54.834Z, 54.95
2023-01-29T09:34:54.792Z, 54.81
2023-01-29T09:35:54.869Z, 54.85
2023-01-29T09:36:54.825Z, 54.82
2023-01-29T09:37:54.921Z, 54.67
2023-01-29T09:38:54.872Z, 54.43
2023-01-29T09:39:54.880Z, 54.46
2023-01-29T09:40:54.866Z, 54.35
2023-01-29T09:41:54.879Z, 54.28
2023-01-29T09:42:54.890Z, 54.24
2023-01-29T09:43:54.897Z, 54.03
2023-01-29T09:44:54.921Z, 54.05
2023-01-29T09:45:54.991Z, 53.98
2023-01-29T09:46:54.937Z, 53.86
2023-01-29T09:47:54.955Z, 53.71
2023-01-29T09:48:54.972Z, 53.69
2023-01-29T09:49:54.971Z, 53.52
2023-01-29T09:50:54.996Z, 53.46
2023-01-29T09:51:54.988Z, 53.36
2023-01-29T09:52:54.996Z, 53.27
2023-01-29T09:53:55.080Z, 53.29
2023-01-29T09:54:55.061Z, 53.20
2023-01-29T09:55:55.081Z, 53.22
2023-01-29T09:56:55.072Z, 53.06
2023-01-29T09:57:55.067Z, 52.93
2023-01-29T09:58:55.068Z, 52.81
2023-01-29T09:59:55.099Z, 52.79
2023-01-29T10:00:55.082Z, 52.69
2023-01-29T10:01:55.191Z, 52.60
2023-01-29T10:02:55.110Z, 52.59
2023-01-29T10:03:55.115Z, 52.57
2023-01-29T10:04:55.224Z, 52.50
2023-01-29T10:05:55.187Z, 52.42
2023-01-29T10:06:55.229Z, 52.30
2023-01-29T10:07:55.216Z, 52.27
2023-01-29T10:08:55.213Z, 52.18
2023-01-29T10:09:55.223Z, 52.13
2023-01-29T10:10:55.283Z, 52.03
2023-01-29T10:11:58.026Z, 51.89
2023-01-29T10:12:55.321Z, 51.88
2023-01-29T10:13:55.354Z, 51.87
2023-01-29T10:14:55.354Z, 51.77
2023-01-29T10:15:55.364Z, 51.80
2023-01-29T10:16:55.426Z, 51.69
2023-01-29T10:17:55.374Z, 51.59
2023-01-29T10:18:55.373Z, 51.51
2023-01-29T10:19:55.408Z, 51.42
2023-01-29T10:20:55.380Z, 51.44
2023-01-29T10:21:55.369Z, 51.32
2023-01-29T10:22:55.381Z, 51.27
2023-01-29T10:23:55.373Z, 51.19
2023-01-29T10:24:55.475Z, 51.17
2023-01-29T10:25:55.428Z, 51.07
2023-01-29T10:26:55.423Z, 51.08
2023-01-29T10:27:55.489Z, 50.98
2023-01-29T10:28:55.491Z, 50.96
2023-01-29T10:29:55.499Z, 50.98
2023-01-29T10:30:55.673Z, 50.87
2023-01-29T10:31:55.623Z, 50.77
2023-01-29T10:32:55.496Z, 50.68
2023-01-29T10:34:01.464Z, 50.64
2023-01-29T10:34:55.499Z, 50.62
2023-01-29T10:35:56.570Z, 50.58
2023-01-29T10:36:55.540Z, 50.55
2023-01-29T10:37:55.554Z, 50.51
2023-01-29T10:38:55.564Z, 50.49
2023-01-29T10:39:55.574Z, 50.37
2023-01-29T10:40:55.580Z, 50.35
2023-01-29T10:41:55.602Z, 50.31
2023-01-29T10:42:55.621Z, 50.23
2023-01-29T10:43:55.623Z, 50.14
2023-01-29T10:44:55.657Z, 50.10
2023-01-29T10:45:55.648Z, 50.03
2023-01-29T10:46:55.697Z, 49.91
2023-01-29T10:47:55.774Z, 49.86
2023-01-29T10:48:55.780Z, 49.88
2023-01-29T10:49:55.738Z, 49.82
2023-01-29T10:50:55.833Z, 49.73
2023-01-29T10:51:55.825Z, 49.67
2023-01-29T10:52:57.299Z, 49.68
2023-01-29T10:53:55.819Z, 49.65
2023-01-29T10:54:55.796Z, 49.59
2023-01-29T10:55:55.855Z, 49.52
2023-01-29T10:56:55.814Z, 49.52
2023-01-29T10:57:55.811Z, 49.51
2023-01-29T10:58:55.815Z, 49.39
2023-01-29T10:59:55.830Z, 49.38
2023-01-29T11:00:55.857Z, 49.36
2023-01-29T11:01:55.917Z, 51.09
2023-01-29T11:02:56.064Z, 51.99
2023-01-29T11:03:55.947Z, 51.81
2023-01-29T11:04:55.914Z, 49.75
2023-01-29T11:05:55.914Z, 46.77
2023-01-29T11:06:55.920Z, 43.60
2023-01-29T11:07:55.923Z, 41.40
2023-01-29T11:08:55.971Z, 40.96
2023-01-29T11:09:56.005Z, 40.45
2023-01-29T11:10:56.007Z, 39.85
2023-01-29T11:11:55.992Z, 39.50
2023-01-29T11:12:55.981Z, 38.61
2023-01-29T11:13:55.994Z, 37.94
2023-01-29T11:14:56.064Z, 37.72
2023-01-29T11:15:56.052Z, 37.53
2023-01-29T11:16:56.046Z, 37.80
2023-01-29T11:17:56.032Z, 38.14
2023-01-29T11:18:56.047Z, 38.77
2023-01-29T11:19:56.096Z, 39.20
2023-01-29T11:20:56.071Z, 39.71
2023-01-29T11:21:56.066Z, 40.16
2023-01-29T11:22:56.072Z, 40.72
2023-01-29T11:23:56.081Z, 41.22
2023-01-29T11:24:56.096Z, 41.99
2023-01-29T11:25:56.155Z, 42.67
2023-01-29T11:26:56.162Z, 43.47
2023-01-29T11:27:56.138Z, 44.05
2023-01-29T11:28:56.152Z, 44.72
2023-01-29T11:29:56.166Z, 45.53
2023-01-29T11:30:56.244Z, 46.94
2023-01-29T11:31:56.323Z, 49.42
2023-01-29T11:32:56.215Z, 50.34
2023-01-29T11:33:56.212Z, 50.32
2023-01-29T11:34:56.225Z, 50.33
2023-01-29T11:35:56.236Z, 50.20
2023-01-29T11:36:56.271Z, 50.09
2023-01-29T11:37:56.321Z, 49.95
2023-01-29T11:38:56.335Z, 49.87
2023-01-29T11:39:56.354Z, 49.71
2023-01-29T11:40:56.308Z, 49.55
2023-01-29T11:41:56.325Z, 49.45
2023-01-29T11:42:56.374Z, 49.25
2023-01-29T11:43:56.399Z, 49.11
2023-01-29T11:44:56.420Z, 48.97
2023-01-29T11:45:56.399Z, 48.83
2023-01-29T11:46:56.428Z, 48.70
2023-01-29T11:47:56.409Z, 48.55
2023-01-29T11:49:02.482Z, 48.40
2023-01-29T11:49:56.447Z, 48.23
2023-01-29T11:50:56.441Z, 48.04
2023-01-29T11:51:56.499Z, 47.81
2023-01-29T11:52:56.492Z, 47.64
2023-01-29T11:53:56.491Z, 47.53
2023-01-29T11:54:56.522Z, 47.35
2023-01-29T11:55:56.526Z, 47.18
2023-01-29T11:56:56.533Z, 46.95
2023-01-29T11:57:56.510Z, 46.79
2023-01-29T11:58:56.555Z, 46.62
2023-01-29T11:59:56.560Z, 46.46
2023-01-29T12:00:56.587Z, 46.35
2023-01-29T12:01:56.621Z, 46.16
2023-01-29T12:02:56.583Z, 45.97
2023-01-29T12:03:56.701Z, 45.78
2023-01-29T12:04:56.597Z, 45.61
2023-01-29T12:05:56.714Z, 45.48
2023-01-29T12:06:56.613Z, 45.36
2023-01-29T12:07:56.655Z, 45.16
2023-01-29T12:08:56.621Z, 45.02
2023-01-29T12:09:56.640Z, 44.85
2023-01-29T12:10:56.655Z, 44.71
2023-01-29T12:11:56.695Z, 44.51
2023-01-29T12:12:56.720Z, 44.43
2023-01-29T12:13:56.802Z, 44.27
2023-01-29T12:14:56.750Z, 44.12
2023-01-29T12:15:56.795Z, 44.01
2023-01-29T12:16:56.756Z, 43.86
2023-01-29T12:17:56.738Z, 43.73
2023-01-29T12:18:56.746Z, 43.64
2023-01-29T12:19:56.748Z, 43.53
2023-01-29T12:20:56.750Z, 43.38
2023-01-29T12:21:56.773Z, 43.25
2023-01-29T12:22:56.796Z, 43.16
2023-01-29T12:23:56.816Z, 43.04
2023-01-29T12:24:56.829Z, 42.92
2023-01-29T12:25:56.842Z, 42.82
2023-01-29T12:26:56.921Z, 42.68
2023-01-29T12:27:56.923Z, 42.53
2023-01-29T12:28:56.933Z, 42.40